sensor_id;sensor_type;location;lat;lon;timestamp;P1;durP1;ratioP1;P2;durP2;ratioP2
51664;SDS011;37751;52.408;12.536;2023-08-20T00:00:15;14.68;;;7.43;;
51664;SDS011;37751;52.408;12.536;2023-08-20T00:02:45;12.05;;;7.07;;
51664;SDS011;37751;52.408;12.536;2023-08-20T00:05:16;7.85;;;6.50;;
51664;SDS011;37751;52.408;12.536;2023-08-20T00:07:44;8.23;;;6.88;;
51664;SDS011;37751;52.408;12.536;2023-08-20T00:10:12;11.77;;;7.10;;
51664;SDS011;37751;52.408;12.536;2023-08-20T00:12:40;11.25;;;7.20;;
51664;SDS011;37751;52.408;12.536;2023-08-20T00:15:08;8.25;;;6.07;;
51664;SDS011;37751;52.408;12.536;2023-08-20T00:17:36;10.43;;;6.45;;
51664;SDS011;37751;52.408;12.536;2023-08-20T00:20:09;7.22;;;6.07;;
51664;SDS011;37751;52.408;12.536;2023-08-20T00:22:40;6.57;;;5.80;;
51664;SDS011;37751;52.408;12.536;2023-08-20T00:25:13;10.77;;;6.03;;
51664;SDS011;37751;52.408;12.536;2023-08-20T00:27:42;9.07;;;6.32;;
51664;SDS011;37751;52.408;12.536;2023-08-20T00:30:10;11.07;;;6.20;;
51664;SDS011;37751;52.408;12.536;2023-08-20T00:32:39;12.20;;;6.35;;
51664;SDS011;37751;52.408;12.536;2023-08-20T00:35:06;12.52;;;6.45;;
51664;SDS011;37751;52.408;12.536;2023-08-20T00:37:36;10.55;;;7.20;;
51664;SDS011;37751;52.408;12.536;2023-08-20T00:40:04;8.15;;;6.15;;
51664;SDS011;37751;52.408;12.536;2023-08-20T00:42:33;9.40;;;6.82;;
51664;SDS011;37751;52.408;12.536;2023-08-20T00:45:01;11.73;;;6.68;;
51664;SDS011;37751;52.408;12.536;2023-08-20T00:47:30;11.38;;;7.28;;
51664;SDS011;37751;52.408;12.536;2023-08-20T00:49:59;12.93;;;7.20;;
51664;SDS011;37751;52.408;12.536;2023-08-20T00:52:27;10.65;;;7.65;;
51664;SDS011;37751;52.408;12.536;2023-08-20T00:54:55;19.67;;;7.22;;
51664;SDS011;37751;52.408;12.536;2023-08-20T00:57:23;12.35;;;7.25;;
51664;SDS011;37751;52.408;12.536;2023-08-20T00:59:52;13.02;;;7.88;;
51664;SDS011;37751;52.408;12.536;2023-08-20T01:02:22;12.65;;;7.28;;
51664;SDS011;37751;52.408;12.536;2023-08-20T01:04:50;10.20;;;7.07;;
51664;SDS011;37751;52.408;12.536;2023-08-20T01:10:52;9.35;;;7.15;;
51664;SDS011;37751;52.408;12.536;2023-08-20T01:13:29;14.15;;;7.38;;
51664;SDS011;37751;52.408;12.536;2023-08-20T01:15:57;9.02;;;7.45;;
51664;SDS011;37751;52.408;12.536;2023-08-20T01:18:25;10.30;;;7.22;;
51664;SDS011;37751;52.408;12.536;2023-08-20T01:20:55;10.60;;;7.43;;
51664;SDS011;37751;52.408;12.536;2023-08-20T01:29:41;10.27;;;8.05;;
51664;SDS011;37751;52.408;12.536;2023-08-20T01:32:10;11.45;;;8.15;;
51664;SDS011;37751;52.408;12.536;2023-08-20T01:34:39;11.98;;;7.85;;
51664;SDS011;37751;52.408;12.536;2023-08-20T01:37:07;14.35;;;8.35;;
51664;SDS011;37751;52.408;12.536;2023-08-20T01:39:35;12.65;;;8.57;;
51664;SDS011;37751;52.408;12.536;2023-08-20T01:42:03;10.00;;;7.90;;
51664;SDS011;37751;52.408;12.536;2023-08-20T01:44:31;16.08;;;8.60;;
51664;SDS011;37751;52.408;12.536;2023-08-20T01:46:58;12.90;;;8.75;;
51664;SDS011;37751;52.408;12.536;2023-08-20T01:49:28;10.15;;;8.30;;
51664;SDS011;37751;52.408;12.536;2023-08-20T01:51:56;12.95;;;8.68;;
51664;SDS011;37751;52.408;12.536;2023-08-20T01:54:24;9.63;;;7.80;;
51664;SDS011;37751;52.408;12.536;2023-08-20T01:56:51;12.57;;;8.90;;
51664;SDS011;37751;52.408;12.536;2023-08-20T01:59:21;14.25;;;8.70;;
51664;SDS011;37751;52.408;12.536;2023-08-20T02:01:49;13.55;;;9.35;;
51664;SDS011;37751;52.408;12.536;2023-08-20T02:04:16;11.82;;;9.30;;
51664;SDS011;37751;52.408;12.536;2023-08-20T02:06:44;11.73;;;9.95;;
51664;SDS011;37751;52.408;12.536;2023-08-20T02:09:13;13.55;;;10.10;;
51664;SDS011;37751;52.408;12.536;2023-08-20T02:11:41;14.18;;;10.60;;
51664;SDS011;37751;52.408;12.536;2023-08-20T02:14:08;12.18;;;10.82;;
51664;SDS011;37751;52.408;12.536;2023-08-20T02:16:35;14.05;;;10.93;;
51664;SDS011;37751;52.408;12.536;2023-08-20T02:19:04;14.52;;;10.23;;
51664;SDS011;37751;52.408;12.536;2023-08-20T02:21:33;14.02;;;11.23;;
51664;SDS011;37751;52.408;12.536;2023-08-20T02:24:01;18.23;;;12.90;;
51664;SDS011;37751;52.408;12.536;2023-08-20T02:26:29;12.57;;;11.27;;
51664;SDS011;37751;52.408;12.536;2023-08-20T02:28:56;14.70;;;11.57;;
51664;SDS011;37751;52.408;12.536;2023-08-20T02:31:24;16.17;;;12.50;;
51664;SDS011;37751;52.408;12.536;2023-08-20T02:33:53;13.50;;;12.07;;
51664;SDS011;37751;52.408;12.536;2023-08-20T02:36:20;18.15;;;12.45;;
51664;SDS011;37751;52.408;12.536;2023-08-20T02:38:48;15.98;;;12.77;;
51664;SDS011;37751;52.408;12.536;2023-08-20T02:41:15;16.98;;;13.50;;
51664;SDS011;37751;52.408;12.536;2023-08-20T02:43:42;16.92;;;13.15;;
51664;SDS011;37751;52.408;12.536;2023-08-20T02:46:10;14.35;;;12.57;;
51664;SDS011;37751;52.408;12.536;2023-08-20T02:48:38;18.50;;;13.10;;
51664;SDS011;37751;52.408;12.536;2023-08-20T02:51:05;21.20;;;13.40;;
51664;SDS011;37751;52.408;12.536;2023-08-20T02:53:33;17.27;;;12.82;;
51664;SDS011;37751;52.408;12.536;2023-08-20T02:56:01;17.58;;;12.73;;
51664;SDS011;37751;52.408;12.536;2023-08-20T02:58:30;16.38;;;12.73;;
51664;SDS011;37751;52.408;12.536;2023-08-20T03:00:58;16.48;;;12.52;;
51664;SDS011;37751;52.408;12.536;2023-08-20T03:03:25;16.13;;;12.27;;
51664;SDS011;37751;52.408;12.536;2023-08-20T03:05:53;15.90;;;12.48;;
51664;SDS011;37751;52.408;12.536;2023-08-20T03:08:21;22.05;;;13.02;;
51664;SDS011;37751;52.408;12.536;2023-08-20T03:10:48;16.90;;;12.93;;
51664;SDS011;37751;52.408;12.536;2023-08-20T03:13:16;18.05;;;12.38;;
51664;SDS011;37751;52.408;12.536;2023-08-20T03:15:43;17.42;;;14.07;;
51664;SDS011;37751;52.408;12.536;2023-08-20T03:18:11;16.10;;;12.75;;
51664;SDS011;37751;52.408;12.536;2023-08-20T03:20:38;19.95;;;14.02;;
51664;SDS011;37751;52.408;12.536;2023-08-20T03:23:06;19.02;;;14.52;;
51664;SDS011;37751;52.408;12.536;2023-08-20T03:25:33;19.55;;;13.45;;
51664;SDS011;37751;52.408;12.536;2023-08-20T03:28:01;17.77;;;14.85;;
51664;SDS011;37751;52.408;12.536;2023-08-20T03:30:29;19.30;;;13.63;;
51664;SDS011;37751;52.408;12.536;2023-08-20T03:32:56;22.05;;;13.88;;
51664;SDS011;37751;52.408;12.536;2023-08-20T03:35:24;18.35;;;13.55;;
51664;SDS011;37751;52.408;12.536;2023-08-20T03:37:53;20.70;;;14.48;;
51664;SDS011;37751;52.408;12.536;2023-08-20T03:40:20;19.45;;;14.20;;
51664;SDS011;37751;52.408;12.536;2023-08-20T03:42:48;16.23;;;13.55;;
51664;SDS011;37751;52.408;12.536;2023-08-20T03:45:17;16.98;;;13.43;;
51664;SDS011;37751;52.408;12.536;2023-08-20T03:47:45;16.67;;;13.57;;
51664;SDS011;37751;52.408;12.536;2023-08-20T03:50:14;16.88;;;13.60;;
51664;SDS011;37751;52.408;12.536;2023-08-20T03:52:42;15.73;;;13.15;;
51664;SDS011;37751;52.408;12.536;2023-08-20T03:55:10;18.02;;;13.38;;
51664;SDS011;37751;52.408;12.536;2023-08-20T03:57:38;19.05;;;14.50;;
51664;SDS011;37751;52.408;12.536;2023-08-20T04:00:07;19.98;;;14.25;;
51664;SDS011;37751;52.408;12.536;2023-08-20T04:02:44;19.00;;;14.73;;
51664;SDS011;37751;52.408;12.536;2023-08-20T04:05:12;17.27;;;13.13;;
51664;SDS011;37751;52.408;12.536;2023-08-20T04:07:40;17.55;;;13.15;;
51664;SDS011;37751;52.408;12.536;2023-08-20T04:10:07;17.13;;;12.75;;
51664;SDS011;37751;52.408;12.536;2023-08-20T04:12:36;16.38;;;12.63;;
51664;SDS011;37751;52.408;12.536;2023-08-20T04:15:03;14.45;;;11.38;;
51664;SDS011;37751;52.408;12.536;2023-08-20T04:17:32;16.05;;;11.60;;
51664;SDS011;37751;52.408;12.536;2023-08-20T04:20:00;16.15;;;10.88;;
51664;SDS011;37751;52.408;12.536;2023-08-20T04:22:28;12.77;;;10.07;;
51664;SDS011;37751;52.408;12.536;2023-08-20T04:24:58;14.85;;;10.68;;
51664;SDS011;37751;52.408;12.536;2023-08-20T04:27:28;12.77;;;10.32;;
51664;SDS011;37751;52.408;12.536;2023-08-20T04:29:56;12.25;;;9.00;;
51664;SDS011;37751;52.408;12.536;2023-08-20T04:32:24;13.00;;;8.90;;
51664;SDS011;37751;52.408;12.536;2023-08-20T04:34:52;13.48;;;8.85;;
51664;SDS011;37751;52.408;12.536;2023-08-20T04:37:22;10.35;;;7.80;;
51664;SDS011;37751;52.408;12.536;2023-08-20T04:39:51;11.15;;;8.02;;
51664;SDS011;37751;52.408;12.536;2023-08-20T04:42:18;11.18;;;8.05;;
51664;SDS011;37751;52.408;12.536;2023-08-20T04:44:46;9.98;;;6.97;;
51664;SDS011;37751;52.408;12.536;2023-08-20T04:47:13;12.25;;;6.65;;
51664;SDS011;37751;52.408;12.536;2023-08-20T04:49:41;6.85;;;6.15;;
51664;SDS011;37751;52.408;12.536;2023-08-20T04:52:08;11.23;;;5.90;;
51664;SDS011;37751;52.408;12.536;2023-08-20T04:54:36;8.20;;;5.18;;
51664;SDS011;37751;52.408;12.536;2023-08-20T04:57:03;7.35;;;5.18;;
51664;SDS011;37751;52.408;12.536;2023-08-20T04:59:31;7.45;;;5.15;;
51664;SDS011;37751;52.408;12.536;2023-08-20T05:02:01;8.60;;;4.85;;
51664;SDS011;37751;52.408;12.536;2023-08-20T05:04:48;8.57;;;5.68;;
51664;SDS011;37751;52.408;12.536;2023-08-20T05:07:16;11.15;;;5.00;;
51664;SDS011;37751;52.408;12.536;2023-08-20T05:09:44;9.20;;;4.70;;
51664;SDS011;37751;52.408;12.536;2023-08-20T05:12:12;7.53;;;3.97;;
51664;SDS011;37751;52.408;12.536;2023-08-20T05:14:39;7.32;;;4.32;;
51664;SDS011;37751;52.408;12.536;2023-08-20T05:17:06;11.05;;;4.70;;
51664;SDS011;37751;52.408;12.536;2023-08-20T05:19:34;11.95;;;4.53;;
51664;SDS011;37751;52.408;12.536;2023-08-20T05:22:02;8.63;;;4.05;;
51664;SDS011;37751;52.408;12.536;2023-08-20T05:24:32;7.05;;;4.13;;
51664;SDS011;37751;52.408;12.536;2023-08-20T05:27:18;7.72;;;4.70;;
51664;SDS011;37751;52.408;12.536;2023-08-20T05:29:49;9.23;;;3.97;;
51664;SDS011;37751;52.408;12.536;2023-08-20T05:32:17;8.48;;;4.80;;
51664;SDS011;37751;52.408;12.536;2023-08-20T05:34:46;6.55;;;4.40;;
51664;SDS011;37751;52.408;12.536;2023-08-20T05:37:14;12.55;;;4.80;;
51664;SDS011;37751;52.408;12.536;2023-08-20T05:39:42;10.95;;;4.85;;
51664;SDS011;37751;52.408;12.536;2023-08-20T05:42:10;10.45;;;4.38;;
51664;SDS011;37751;52.408;12.536;2023-08-20T05:44:42;9.15;;;4.43;;
51664;SDS011;37751;52.408;12.536;2023-08-20T05:47:14;11.60;;;5.15;;
51664;SDS011;37751;52.408;12.536;2023-08-20T05:49:41;7.40;;;4.55;;
51664;SDS011;37751;52.408;12.536;2023-08-20T05:52:09;7.43;;;4.75;;
51664;SDS011;37751;52.408;12.536;2023-08-20T05:54:37;5.30;;;4.03;;
51664;SDS011;37751;52.408;12.536;2023-08-20T05:57:05;9.98;;;4.47;;
51664;SDS011;37751;52.408;12.536;2023-08-20T05:59:32;5.45;;;4.38;;
51664;SDS011;37751;52.408;12.536;2023-08-20T06:02:01;10.88;;;4.18;;
51664;SDS011;37751;52.408;12.536;2023-08-20T06:04:30;8.02;;;4.82;;
51664;SDS011;37751;52.408;12.536;2023-08-20T06:06:57;7.70;;;4.80;;
51664;SDS011;37751;52.408;12.536;2023-08-20T06:09:25;8.85;;;4.82;;
51664;SDS011;37751;52.408;12.536;2023-08-20T06:11:53;8.70;;;4.70;;
51664;SDS011;37751;52.408;12.536;2023-08-20T06:14:20;10.85;;;4.30;;
51664;SDS011;37751;52.408;12.536;2023-08-20T06:16:48;7.47;;;4.45;;
51664;SDS011;37751;52.408;12.536;2023-08-20T06:19:15;10.05;;;5.10;;
51664;SDS011;37751;52.408;12.536;2023-08-20T06:21:43;10.68;;;4.60;;
51664;SDS011;37751;52.408;12.536;2023-08-20T06:24:10;5.22;;;4.18;;
51664;SDS011;37751;52.408;12.536;2023-08-20T06:26:38;7.90;;;4.30;;
51664;SDS011;37751;52.408;12.536;2023-08-20T06:29:05;13.40;;;4.85;;
51664;SDS011;37751;52.408;12.536;2023-08-20T06:31:32;9.13;;;4.47;;
51664;SDS011;37751;52.408;12.536;2023-08-20T06:34:00;13.10;;;4.95;;
51664;SDS011;37751;52.408;12.536;2023-08-20T06:36:27;8.35;;;4.85;;
51664;SDS011;37751;52.408;12.536;2023-08-20T06:38:55;8.55;;;4.50;;
51664;SDS011;37751;52.408;12.536;2023-08-20T06:41:23;10.88;;;5.07;;
51664;SDS011;37751;52.408;12.536;2023-08-20T06:43:50;10.18;;;3.90;;
51664;SDS011;37751;52.408;12.536;2023-08-20T06:46:18;10.02;;;3.67;;
51664;SDS011;37751;52.408;12.536;2023-08-20T06:48:45;7.40;;;3.58;;
51664;SDS011;37751;52.408;12.536;2023-08-20T06:51:13;8.82;;;3.47;;
51664;SDS011;37751;52.408;12.536;2023-08-20T06:53:42;6.82;;;3.30;;
51664;SDS011;37751;52.408;12.536;2023-08-20T06:56:09;8.65;;;3.40;;
51664;SDS011;37751;52.408;12.536;2023-08-20T06:58:39;7.05;;;3.22;;
51664;SDS011;37751;52.408;12.536;2023-08-20T07:01:07;5.65;;;3.30;;
51664;SDS011;37751;52.408;12.536;2023-08-20T07:03:37;6.60;;;3.33;;
51664;SDS011;37751;52.408;12.536;2023-08-20T07:06:05;6.07;;;3.08;;
51664;SDS011;37751;52.408;12.536;2023-08-20T07:08:33;6.97;;;2.92;;
51664;SDS011;37751;52.408;12.536;2023-08-20T07:11:05;7.70;;;2.97;;
51664;SDS011;37751;52.408;12.536;2023-08-20T07:13:32;4.13;;;2.40;;
51664;SDS011;37751;52.408;12.536;2023-08-20T07:16:00;4.38;;;2.20;;
51664;SDS011;37751;52.408;12.536;2023-08-20T07:18:27;6.95;;;2.65;;
51664;SDS011;37751;52.408;12.536;2023-08-20T07:20:56;5.40;;;3.15;;
51664;SDS011;37751;52.408;12.536;2023-08-20T07:23:23;4.57;;;2.40;;
51664;SDS011;37751;52.408;12.536;2023-08-20T07:25:51;6.50;;;2.47;;
51664;SDS011;37751;52.408;12.536;2023-08-20T07:28:19;6.60;;;2.55;;
51664;SDS011;37751;52.408;12.536;2023-08-20T07:31:09;3.88;;;2.50;;
51664;SDS011;37751;52.408;12.536;2023-08-20T07:33:36;3.35;;;2.17;;
51664;SDS011;37751;52.408;12.536;2023-08-20T07:36:04;5.05;;;2.53;;
51664;SDS011;37751;52.408;12.536;2023-08-20T07:38:32;5.00;;;2.70;;
51664;SDS011;37751;52.408;12.536;2023-08-20T07:40:59;8.75;;;2.72;;
51664;SDS011;37751;52.408;12.536;2023-08-20T07:43:27;7.25;;;2.88;;
51664;SDS011;37751;52.408;12.536;2023-08-20T07:45:57;6.13;;;2.88;;
51664;SDS011;37751;52.408;12.536;2023-08-20T07:48:24;4.72;;;2.60;;
51664;SDS011;37751;52.408;12.536;2023-08-20T07:50:52;4.47;;;2.60;;
51664;SDS011;37751;52.408;12.536;2023-08-20T07:53:20;4.93;;;2.40;;
51664;SDS011;37751;52.408;12.536;2023-08-20T07:55:47;6.80;;;2.28;;
51664;SDS011;37751;52.408;12.536;2023-08-20T07:58:15;6.38;;;2.60;;
51664;SDS011;37751;52.408;12.536;2023-08-20T08:00:42;4.55;;;1.88;;
51664;SDS011;37751;52.408;12.536;2023-08-20T08:03:13;4.30;;;2.17;;
51664;SDS011;37751;52.408;12.536;2023-08-20T08:05:47;6.28;;;2.20;;
51664;SDS011;37751;52.408;12.536;2023-08-20T08:08:16;6.07;;;2.08;;
51664;SDS011;37751;52.408;12.536;2023-08-20T08:10:45;3.53;;;2.15;;
51664;SDS011;37751;52.408;12.536;2023-08-20T08:13:14;5.38;;;2.00;;
51664;SDS011;37751;52.408;12.536;2023-08-20T08:15:49;2.78;;;1.65;;
51664;SDS011;37751;52.408;12.536;2023-08-20T08:18:17;3.10;;;1.70;;
51664;SDS011;37751;52.408;12.536;2023-08-20T08:20:46;2.05;;;1.45;;
51664;SDS011;37751;52.408;12.536;2023-08-20T08:23:13;3.17;;;1.50;;
51664;SDS011;37751;52.408;12.536;2023-08-20T08:25:41;5.78;;;1.40;;
51664;SDS011;37751;52.408;12.536;2023-08-20T08:28:08;3.08;;;1.48;;
51664;SDS011;37751;52.408;12.536;2023-08-20T08:30:36;3.60;;;1.77;;
51664;SDS011;37751;52.408;12.536;2023-08-20T08:33:04;2.90;;;1.33;;
51664;SDS011;37751;52.408;12.536;2023-08-20T08:35:32;4.30;;;1.60;;
51664;SDS011;37751;52.408;12.536;2023-08-20T08:37:59;2.58;;;1.15;;
51664;SDS011;37751;52.408;12.536;2023-08-20T08:40:28;1.95;;;1.25;;
51664;SDS011;37751;52.408;12.536;2023-08-20T08:42:56;1.95;;;1.35;;
51664;SDS011;37751;52.408;12.536;2023-08-20T08:45:24;3.45;;;1.30;;
51664;SDS011;37751;52.408;12.536;2023-08-20T08:47:54;3.40;;;1.50;;
51664;SDS011;37751;52.408;12.536;2023-08-20T08:50:22;3.20;;;1.50;;
51664;SDS011;37751;52.408;12.536;2023-08-20T08:52:50;4.63;;;1.90;;
51664;SDS011;37751;52.408;12.536;2023-08-20T08:55:19;2.83;;;1.50;;
51664;SDS011;37751;52.408;12.536;2023-08-20T08:57:47;6.65;;;1.90;;
51664;SDS011;37751;52.408;12.536;2023-08-20T09:00:15;4.30;;;1.65;;
51664;SDS011;37751;52.408;12.536;2023-08-20T09:02:42;5.68;;;2.17;;
51664;SDS011;37751;52.408;12.536;2023-08-20T09:05:10;5.75;;;2.15;;
51664;SDS011;37751;52.408;12.536;2023-08-20T09:07:42;5.85;;;2.83;;
51664;SDS011;37751;52.408;12.536;2023-08-20T09:10:10;4.40;;;2.72;;
51664;SDS011;37751;52.408;12.536;2023-08-20T09:12:38;4.45;;;2.33;;
51664;SDS011;37751;52.408;12.536;2023-08-20T09:15:10;4.88;;;2.50;;
51664;SDS011;37751;52.408;12.536;2023-08-20T09:17:40;6.57;;;2.60;;
51664;SDS011;37751;52.408;12.536;2023-08-20T09:20:09;8.13;;;2.70;;
51664;SDS011;37751;52.408;12.536;2023-08-20T09:22:37;9.82;;;2.53;;
51664;SDS011;37751;52.408;12.536;2023-08-20T09:25:05;9.30;;;4.18;;
51664;SDS011;37751;52.408;12.536;2023-08-20T09:27:38;4.95;;;2.60;;
51664;SDS011;37751;52.408;12.536;2023-08-20T09:30:08;5.10;;;2.10;;
51664;SDS011;37751;52.408;12.536;2023-08-20T09:32:35;3.40;;;2.17;;
51664;SDS011;37751;52.408;12.536;2023-08-20T09:35:03;3.30;;;2.08;;
51664;SDS011;37751;52.408;12.536;2023-08-20T09:37:31;4.13;;;1.90;;
51664;SDS011;37751;52.408;12.536;2023-08-20T09:40:00;7.82;;;1.92;;
51664;SDS011;37751;52.408;12.536;2023-08-20T09:42:28;4.55;;;1.80;;
51664;SDS011;37751;52.408;12.536;2023-08-20T09:45:00;5.70;;;1.98;;
51664;SDS011;37751;52.408;12.536;2023-08-20T09:47:31;4.03;;;2.00;;
51664;SDS011;37751;52.408;12.536;2023-08-20T09:50:01;4.13;;;2.10;;
51664;SDS011;37751;52.408;12.536;2023-08-20T09:52:39;5.47;;;1.58;;
51664;SDS011;37751;52.408;12.536;2023-08-20T09:55:08;4.25;;;1.67;;
51664;SDS011;37751;52.408;12.536;2023-08-20T09:57:37;3.22;;;1.50;;
51664;SDS011;37751;52.408;12.536;2023-08-20T10:00:12;3.10;;;1.38;;
51664;SDS011;37751;52.408;12.536;2023-08-20T10:02:41;3.42;;;1.65;;
51664;SDS011;37751;52.408;12.536;2023-08-20T10:05:09;3.47;;;1.40;;
51664;SDS011;37751;52.408;12.536;2023-08-20T10:07:38;2.95;;;1.58;;
51664;SDS011;37751;52.408;12.536;2023-08-20T10:10:07;3.67;;;1.73;;
51664;SDS011;37751;52.408;12.536;2023-08-20T10:12:37;4.75;;;1.40;;
51664;SDS011;37751;52.408;12.536;2023-08-20T10:15:09;5.10;;;1.40;;
51664;SDS011;37751;52.408;12.536;2023-08-20T10:17:40;4.40;;;1.55;;
51664;SDS011;37751;52.408;12.536;2023-08-20T10:20:09;2.35;;;1.30;;
51664;SDS011;37751;52.408;12.536;2023-08-20T10:22:40;4.07;;;1.42;;
51664;SDS011;37751;52.408;12.536;2023-08-20T10:25:21;3.00;;;1.50;;
51664;SDS011;37751;52.408;12.536;2023-08-20T10:27:52;3.40;;;1.17;;
51664;SDS011;37751;52.408;12.536;2023-08-20T10:30:24;2.90;;;1.27;;
51664;SDS011;37751;52.408;12.536;2023-08-20T10:32:56;3.75;;;1.67;;
51664;SDS011;37751;52.408;12.536;2023-08-20T10:35:28;4.32;;;1.83;;
51664;SDS011;37751;52.408;12.536;2023-08-20T10:38:14;2.55;;;1.52;;
51664;SDS011;37751;52.408;12.536;2023-08-20T10:59:14;6.47;;;2.15;;
51664;SDS011;37751;52.408;12.536;2023-08-20T11:01:49;4.32;;;1.70;;
51664;SDS011;37751;52.408;12.536;2023-08-20T11:04:19;2.65;;;1.58;;
51664;SDS011;37751;52.408;12.536;2023-08-20T11:06:55;2.17;;;1.50;;
51664;SDS011;37751;52.408;12.536;2023-08-20T11:09:24;3.97;;;1.80;;
51664;SDS011;37751;52.408;12.536;2023-08-20T11:11:52;2.35;;;1.35;;
51664;SDS011;37751;52.408;12.536;2023-08-20T11:14:21;3.92;;;1.50;;
51664;SDS011;37751;52.408;12.536;2023-08-20T11:16:49;3.10;;;1.40;;
51664;SDS011;37751;52.408;12.536;2023-08-20T11:19:21;3.95;;;1.58;;
51664;SDS011;37751;52.408;12.536;2023-08-20T11:21:50;3.22;;;1.80;;
51664;SDS011;37751;52.408;12.536;2023-08-20T11:24:18;3.60;;;1.73;;
51664;SDS011;37751;52.408;12.536;2023-08-20T11:26:47;4.07;;;1.55;;
51664;SDS011;37751;52.408;12.536;2023-08-20T11:29:15;2.00;;;1.40;;
51664;SDS011;37751;52.408;12.536;2023-08-20T11:31:47;1.48;;;1.02;;
51664;SDS011;37751;52.408;12.536;2023-08-20T11:34:16;2.47;;;1.20;;
51664;SDS011;37751;52.408;12.536;2023-08-20T11:36:46;3.88;;;1.50;;
51664;SDS011;37751;52.408;12.536;2023-08-20T11:39:13;3.47;;;1.50;;
51664;SDS011;37751;52.408;12.536;2023-08-20T11:41:41;3.55;;;1.15;;
51664;SDS011;37751;52.408;12.536;2023-08-20T11:44:18;4.03;;;1.20;;
51664;SDS011;37751;52.408;12.536;2023-08-20T11:46:46;5.10;;;1.17;;
51664;SDS011;37751;52.408;12.536;2023-08-20T11:49:14;3.53;;;1.15;;
51664;SDS011;37751;52.408;12.536;2023-08-20T11:51:42;2.65;;;1.30;;
51664;SDS011;37751;52.408;12.536;2023-08-20T11:54:13;2.25;;;1.25;;
51664;SDS011;37751;52.408;12.536;2023-08-20T11:56:45;2.90;;;1.10;;
51664;SDS011;37751;52.408;12.536;2023-08-20T11:59:19;2.85;;;1.55;;
51664;SDS011;37751;52.408;12.536;2023-08-20T12:01:59;1.30;;;1.10;;
51664;SDS011;37751;52.408;12.536;2023-08-20T12:04:30;3.55;;;1.05;;
51664;SDS011;37751;52.408;12.536;2023-08-20T12:07:05;2.95;;;1.10;;
51664;SDS011;37751;52.408;12.536;2023-08-20T12:09:37;2.63;;;1.20;;
51664;SDS011;37751;52.408;12.536;2023-08-20T12:12:08;3.78;;;1.10;;
51664;SDS011;37751;52.408;12.536;2023-08-20T12:14:36;4.93;;;1.50;;
51664;SDS011;37751;52.408;12.536;2023-08-20T12:17:03;3.80;;;1.20;;
51664;SDS011;37751;52.408;12.536;2023-08-20T12:19:31;5.22;;;1.20;;
51664;SDS011;37751;52.408;12.536;2023-08-20T12:22:02;2.22;;;0.98;;
51664;SDS011;37751;52.408;12.536;2023-08-20T12:24:30;4.20;;;1.15;;
51664;SDS011;37751;52.408;12.536;2023-08-20T12:26:58;3.50;;;1.35;;
51664;SDS011;37751;52.408;12.536;2023-08-20T12:29:25;2.30;;;1.48;;
51664;SDS011;37751;52.408;12.536;2023-08-20T12:31:53;3.25;;;1.50;;
51664;SDS011;37751;52.408;12.536;2023-08-20T12:34:20;2.38;;;1.20;;
51664;SDS011;37751;52.408;12.536;2023-08-20T12:36:53;1.30;;;1.00;;
51664;SDS011;37751;52.408;12.536;2023-08-20T12:39:20;4.30;;;1.20;;
51664;SDS011;37751;52.408;12.536;2023-08-20T12:41:47;4.68;;;1.17;;
51664;SDS011;37751;52.408;12.536;2023-08-20T12:44:16;2.40;;;1.13;;
51664;SDS011;37751;52.408;12.536;2023-08-20T12:46:43;2.25;;;1.38;;
51664;SDS011;37751;52.408;12.536;2023-08-20T12:49:11;2.20;;;1.20;;
51664;SDS011;37751;52.408;12.536;2023-08-20T12:51:38;2.85;;;1.17;;
51664;SDS011;37751;52.408;12.536;2023-08-20T12:54:05;5.22;;;1.70;;
51664;SDS011;37751;52.408;12.536;2023-08-20T12:56:33;4.30;;;1.38;;
51664;SDS011;37751;52.408;12.536;2023-08-20T12:59:01;3.30;;;1.30;;
51664;SDS011;37751;52.408;12.536;2023-08-20T13:01:29;4.00;;;1.20;;
51664;SDS011;37751;52.408;12.536;2023-08-20T13:03:57;2.42;;;1.38;;
51664;SDS011;37751;52.408;12.536;2023-08-20T13:06:25;3.63;;;1.35;;
51664;SDS011;37751;52.408;12.536;2023-08-20T13:08:53;3.95;;;1.65;;
51664;SDS011;37751;52.408;12.536;2023-08-20T13:11:20;5.80;;;1.52;;
51664;SDS011;37751;52.408;12.536;2023-08-20T13:13:48;2.63;;;1.40;;
51664;SDS011;37751;52.408;12.536;2023-08-20T13:16:18;3.33;;;1.58;;
51664;SDS011;37751;52.408;12.536;2023-08-20T13:18:46;3.38;;;1.38;;
51664;SDS011;37751;52.408;12.536;2023-08-20T13:21:14;3.33;;;1.40;;
51664;SDS011;37751;52.408;12.536;2023-08-20T13:23:42;3.78;;;1.38;;
51664;SDS011;37751;52.408;12.536;2023-08-20T13:26:11;3.40;;;1.33;;
51664;SDS011;37751;52.408;12.536;2023-08-20T13:28:38;4.25;;;1.92;;
51664;SDS011;37751;52.408;12.536;2023-08-20T13:31:06;5.10;;;1.90;;
51664;SDS011;37751;52.408;12.536;2023-08-20T13:33:33;4.68;;;1.40;;
51664;SDS011;37751;52.408;12.536;2023-08-20T13:36:01;4.15;;;1.73;;
51664;SDS011;37751;52.408;12.536;2023-08-20T13:38:29;2.60;;;1.60;;
51664;SDS011;37751;52.408;12.536;2023-08-20T13:40:56;7.10;;;1.50;;
51664;SDS011;37751;52.408;12.536;2023-08-20T13:43:25;3.22;;;1.80;;
51664;SDS011;37751;52.408;12.536;2023-08-20T13:45:52;3.13;;;1.65;;
51664;SDS011;37751;52.408;12.536;2023-08-20T13:48:20;52.55;;;46.58;;
51664;SDS011;37751;52.408;12.536;2023-08-20T13:50:47;4.43;;;1.75;;
51664;SDS011;37751;52.408;12.536;2023-08-20T13:53:14;5.88;;;1.55;;
51664;SDS011;37751;52.408;12.536;2023-08-20T13:55:42;3.00;;;1.83;;
51664;SDS011;37751;52.408;12.536;2023-08-20T13:58:09;6.90;;;2.30;;
51664;SDS011;37751;52.408;12.536;2023-08-20T14:00:37;2.50;;;1.63;;
51664;SDS011;37751;52.408;12.536;2023-08-20T14:03:04;3.28;;;1.58;;
51664;SDS011;37751;52.408;12.536;2023-08-20T14:05:32;2.90;;;1.75;;
51664;SDS011;37751;52.408;12.536;2023-08-20T14:07:59;5.32;;;1.60;;
51664;SDS011;37751;52.408;12.536;2023-08-20T14:10:27;4.32;;;1.60;;
51664;SDS011;37751;52.408;12.536;2023-08-20T14:12:54;3.03;;;1.50;;
51664;SDS011;37751;52.408;12.536;2023-08-20T14:15:22;7.13;;;1.70;;
51664;SDS011;37751;52.408;12.536;2023-08-20T14:17:49;4.10;;;1.80;;
51664;SDS011;37751;52.408;12.536;2023-08-20T14:20:17;4.35;;;2.10;;
51664;SDS011;37751;52.408;12.536;2023-08-20T14:22:44;4.28;;;2.00;;
51664;SDS011;37751;52.408;12.536;2023-08-20T14:25:12;7.30;;;1.45;;
51664;SDS011;37751;52.408;12.536;2023-08-20T14:27:39;4.38;;;1.67;;
51664;SDS011;37751;52.408;12.536;2023-08-20T14:30:07;2.60;;;1.33;;
51664;SDS011;37751;52.408;12.536;2023-08-20T14:32:35;3.97;;;1.42;;
51664;SDS011;37751;52.408;12.536;2023-08-20T14:35:07;4.40;;;1.83;;
51664;SDS011;37751;52.408;12.536;2023-08-20T14:37:36;4.80;;;1.65;;
51664;SDS011;37751;52.408;12.536;2023-08-20T14:40:04;3.95;;;1.92;;
51664;SDS011;37751;52.408;12.536;2023-08-20T14:42:33;4.68;;;2.30;;
51664;SDS011;37751;52.408;12.536;2023-08-20T14:45:02;6.07;;;1.80;;
51664;SDS011;37751;52.408;12.536;2023-08-20T14:47:31;4.18;;;2.20;;
51664;SDS011;37751;52.408;12.536;2023-08-20T14:49:58;3.20;;;1.85;;
51664;SDS011;37751;52.408;12.536;2023-08-20T14:52:26;3.80;;;1.70;;
51664;SDS011;37751;52.408;12.536;2023-08-20T14:54:53;6.05;;;1.90;;
51664;SDS011;37751;52.408;12.536;2023-08-20T14:57:21;3.13;;;1.77;;
51664;SDS011;37751;52.408;12.536;2023-08-20T14:59:48;3.15;;;1.45;;
51664;SDS011;37751;52.408;12.536;2023-08-20T15:02:16;4.50;;;2.17;;
51664;SDS011;37751;52.408;12.536;2023-08-20T15:04:43;3.47;;;2.20;;